createdAt,value
2022-10-05T00:00:26.714Z,2.17
2022-10-05T00:04:33.380Z,2.92
2022-10-05T00:08:40.226Z,3.30
2022-10-05T00:12:48.035Z,2.53
2022-10-05T00:16:56.216Z,2.40
2022-10-05T00:21:09.020Z,2.47
2022-10-05T00:25:19.134Z,2.40
2022-10-05T00:29:25.872Z,2.58
2022-10-05T00:33:32.551Z,2.55
2022-10-05T00:37:40.000Z,2.17
2022-10-05T00:42:12.317Z,2.88
2022-10-05T00:51:12.088Z,3.05
2022-10-05T00:55:40.055Z,3.55
2022-10-05T01:00:05.965Z,2.85
2022-10-05T01:04:38.235Z,2.60
2022-10-05T01:09:09.461Z,2.10
2022-10-05T01:13:25.133Z,2.97
2022-10-05T01:17:51.714Z,2.28
2022-10-05T01:22:08.888Z,2.30
2022-10-05T01:26:46.616Z,2.28
2022-10-05T01:31:15.652Z,2.67
2022-10-05T01:35:33.487Z,2.90
2022-10-05T01:40:17.721Z,3.20
2022-10-05T01:44:44.457Z,2.97
2022-10-05T01:49:11.883Z,2.97
2022-10-05T01:53:25.114Z,3.72
2022-10-05T01:57:50.432Z,3.08
2022-10-05T02:02:08.181Z,3.33
2022-10-05T02:06:22.281Z,3.90
2022-10-05T02:10:42.218Z,2.95
2022-10-05T02:14:54.882Z,3.13
2022-10-05T02:19:21.525Z,3.47
2022-10-05T02:23:35.069Z,2.42
2022-10-05T02:27:52.693Z,3.80
2022-10-05T02:32:04.068Z,3.20
2022-10-05T02:36:18.048Z,3.50
2022-10-05T02:40:33.794Z,4.57
2022-10-05T02:45:02.402Z,4.13
2022-10-05T02:49:34.098Z,3.90
2022-10-05T02:53:55.842Z,3.38
2022-10-05T02:58:23.403Z,4.68
2022-10-05T03:02:52.951Z,3.67
2022-10-05T03:07:29.589Z,4.70
2022-10-05T03:12:04.331Z,5.22
2022-10-05T03:16:35.836Z,4.43
2022-10-05T03:21:20.299Z,5.33
2022-10-05T03:25:42.322Z,4.18
2022-10-05T03:30:04.166Z,5.38
2022-10-05T03:34:20.329Z,4.50
2022-10-05T03:38:48.692Z,4.10
2022-10-05T03:43:29.547Z,4.47
2022-10-05T03:47:49.845Z,5.10
2022-10-05T03:52:05.936Z,5.10
2022-10-05T03:56:51.649Z,5.75
2022-10-05T04:01:05.445Z,4.80
2022-10-05T04:05:22.006Z,5.32
2022-10-05T04:09:42.996Z,5.32
2022-10-05T04:14:06.670Z,5.45
2022-10-05T04:18:39.745Z,6.00
2022-10-05T04:23:23.776Z,5.35
2022-10-05T04:27:41.915Z,5.28
2022-10-05T04:31:54.689Z,5.32
2022-10-05T04:36:22.241Z,4.55
2022-10-05T04:40:41.133Z,5.35
2022-10-05T04:45:08.660Z,4.88
2022-10-05T04:49:24.864Z,4.00
2022-10-05T04:53:54.041Z,3.70
2022-10-05T04:58:44.505Z,3.80
2022-10-05T05:03:06.588Z,3.38
2022-10-05T05:07:30.155Z,3.97
2022-10-05T05:12:18.400Z,3.10
2022-10-05T05:16:45.143Z,3.83
2022-10-05T05:20:58.606Z,3.53
2022-10-05T05:25:26.328Z,3.42
2022-10-05T05:29:50.845Z,3.80
2022-10-05T05:34:20.054Z,3.53
2022-10-05T05:39:11.289Z,3.85
2022-10-05T05:43:30.709Z,3.58
2022-10-05T05:47:45.045Z,3.97
2022-10-05T05:52:00.252Z,3.55
2022-10-05T05:56:13.372Z,3.22
2022-10-05T06:00:32.518Z,2.58
2022-10-05T06:04:45.121Z,3.67
2022-10-05T06:08:58.510Z,3.95
2022-10-05T06:13:29.033Z,4.00
2022-10-05T06:17:58.789Z,3.50
2022-10-05T06:22:23.742Z,3.28
2022-10-05T06:27:07.409Z,3.15
2022-10-05T06:32:01.134Z,3.13
2022-10-05T06:36:49.515Z,3.40
2022-10-05T06:41:24.182Z,3.05
2022-10-05T06:45:55.164Z,2.75
2022-10-05T06:50:36.833Z,3.05
2022-10-05T06:55:04.824Z,2.77
2022-10-05T06:59:43.374Z,2.28
2022-10-05T07:04:09.556Z,2.45
2022-10-05T07:08:38.086Z,2.50
2022-10-05T07:13:09.687Z,3.22
2022-10-05T07:17:48.441Z,2.57
2022-10-05T07:26:37.326Z,2.63
2022-10-05T07:31:11.565Z,3.03
2022-10-05T07:35:42.469Z,3.20
2022-10-05T07:40:30.354Z,2.20
2022-10-05T07:44:45.545Z,2.10
2022-10-05T07:49:10.230Z,2.30
2022-10-05T07:53:43.429Z,1.90
2022-10-05T07:58:23.634Z,3.22
2022-10-05T08:02:45.409Z,2.58
2022-10-05T08:06:59.658Z,1.73
2022-10-05T08:11:17.546Z,2.25
2022-10-05T08:15:33.005Z,1.77
2022-10-05T08:19:47.523Z,2.42
2022-10-05T08:23:59.929Z,1.77
2022-10-05T08:28:26.392Z,1.65
2022-10-05T08:32:40.117Z,1.65
2022-10-05T08:37:02.541Z,1.67
2022-10-05T08:41:53.139Z,1.67
2022-10-05T08:46:14.794Z,1.60
2022-10-05T08:50:24.505Z,1.48
2022-10-05T08:54:41.785Z,1.00
2022-10-05T08:59:27.063Z,1.10
2022-10-05T09:04:16.733Z,0.80
2022-10-05T09:08:32.845Z,0.73
2022-10-05T09:13:11.401Z,0.70
2022-10-05T09:17:25.485Z,0.75
2022-10-05T09:21:42.302Z,0.80
2022-10-05T09:25:58.722Z,0.80
2022-10-05T09:30:27.047Z,1.00
2022-10-05T09:35:01.091Z,0.63
2022-10-05T09:39:39.614Z,1.17
2022-10-05T09:43:46.235Z,1.00
2022-10-05T09:48:30.799Z,0.80
2022-10-05T09:52:56.641Z,1.30
2022-10-05T09:57:21.418Z,1.15
2022-10-05T10:01:37.030Z,1.05
2022-10-05T10:05:49.633Z,0.93
2022-10-05T10:10:14.185Z,0.85
2022-10-05T10:14:49.747Z,1.02
2022-10-05T10:19:12.622Z,1.20
2022-10-05T10:23:33.635Z,0.88
2022-10-05T10:27:54.212Z,0.70
2022-10-05T10:32:22.574Z,1.00
2022-10-05T10:37:03.484Z,1.02
2022-10-05T10:41:20.942Z,1.30
2022-10-05T10:45:51.171Z,0.93
2022-10-05T10:50:28.820Z,0.57
2022-10-05T10:55:08.149Z,0.50
2022-10-05T10:59:17.809Z,0.65
2022-10-05T11:04:02.667Z,0.60
2022-10-05T11:08:24.451Z,1.25
2022-10-05T11:13:08.751Z,0.70
2022-10-05T11:17:47.465Z,0.60
2022-10-05T11:22:13.032Z,0.60
2022-10-05T11:26:30.140Z,0.68
2022-10-05T11:31:01.536Z,0.80
2022-10-05T11:35:08.249Z,0.70
2022-10-05T11:39:39.812Z,0.50
2022-10-05T11:44:07.205Z,0.50
2022-10-05T11:48:22.986Z,0.50
2022-10-05T11:52:47.796Z,0.50
2022-10-05T11:57:08.684Z,0.85
2022-10-05T12:01:31.075Z,0.50
2022-10-05T12:05:54.603Z,0.50
2022-10-05T12:10:20.109Z,1.05
2022-10-05T12:15:02.175Z,0.43
2022-10-05T12:19:36.519Z,0.60
2022-10-05T12:24:05.039Z,0.75
2022-10-05T12:28:18.592Z,0.40
2022-10-05T12:32:46.562Z,0.77
2022-10-05T12:37:11.382Z,0.40
2022-10-05T12:41:38.575Z,0.55
2022-10-05T12:46:19.658Z,0.70
2022-10-05T12:50:39.794Z,0.40
2022-10-05T12:55:13.321Z,0.30
2022-10-05T12:59:42.301Z,0.50
2022-10-05T13:03:57.837Z,0.60
2022-10-05T13:08:29.351Z,0.60
2022-10-05T13:12:46.788Z,0.40
2022-10-05T13:17:05.375Z,0.50
2022-10-05T13:21:32.965Z,0.30
2022-10-05T13:25:52.117Z,0.82
2022-10-05T13:30:13.125Z,0.60
2022-10-05T13:34:36.364Z,0.60
2022-10-05T13:38:46.847Z,0.63
2022-10-05T13:43:21.646Z,0.50
2022-10-05T13:48:00.286Z,0.50
2022-10-05T13:52:28.428Z,0.57
2022-10-05T13:56:42.181Z,0.50
2022-10-05T14:00:54.419Z,0.50
2022-10-05T14:05:21.427Z,0.40
2022-10-05T14:09:29.835Z,0.50
2022-10-05T14:13:47.542Z,0.40
2022-10-05T14:17:54.550Z,0.80
2022-10-05T14:22:11.147Z,0.40
2022-10-05T14:26:20.560Z,0.55
2022-10-05T14:30:29.262Z,0.70
2022-10-05T14:34:42.882Z,0.52
2022-10-05T14:39:01.970Z,0.43
2022-10-05T14:43:14.455Z,0.70
2022-10-05T14:47:23.334Z,0.85
2022-10-05T14:51:32.593Z,0.40
2022-10-05T14:55:57.695Z,0.68
2022-10-05T15:00:16.441Z,0.93
2022-10-05T15:04:54.376Z,0.40
2022-10-05T15:09:17.597Z,0.30
2022-10-05T15:13:32.027Z,0.60
2022-10-05T15:17:47.529Z,0.30
2022-10-05T15:22:15.367Z,0.32
2022-10-05T15:26:40.462Z,0.40
2022-10-05T15:31:02.785Z,0.20
2022-10-05T15:35:41.899Z,0.30
2022-10-05T15:40:06.585Z,0.30
2022-10-05T15:44:44.283Z,0.30
2022-10-05T15:49:18.299Z,0.82
2022-10-05T15:53:45.950Z,0.43
2022-10-05T15:58:31.345Z,0.50
2022-10-05T16:02:42.013Z,0.40
2022-10-05T16:07:16.504Z,0.65
2022-10-05T16:11:37.886Z,0.40
2022-10-05T16:15:55.141Z,0.50
2022-10-05T16:20:20.865Z,0.50
2022-10-05T16:25:15.742Z,0.40
2022-10-05T16:29:35.555Z,0.30
2022-10-05T16:33:54.417Z,0.30
2022-10-05T16:38:14.588Z,0.20
2022-10-05T16:43:02.395Z,0.85
2022-10-05T16:47:44.162Z,0.30
2022-10-05T16:51:59.153Z,0.30
2022-10-05T16:56:17.393Z,0.47
2022-10-05T17:00:51.946Z,0.20
2022-10-05T17:05:14.305Z,0.30
2022-10-05T17:09:46.820Z,0.82
2022-10-05T17:14:38.917Z,0.30
2022-10-05T17:19:09.804Z,0.57
2022-10-05T17:23:30.234Z,0.20
2022-10-05T17:28:15.037Z,0.40
2022-10-05T17:32:25.645Z,0.40
2022-10-05T17:36:48.196Z,0.30
2022-10-05T17:41:05.582Z,0.30
2022-10-05T17:45:12.229Z,0.30
2022-10-05T17:49:39.812Z,0.30
2022-10-05T17:54:06.713Z,0.40
2022-10-05T17:58:54.408Z,0.30
2022-10-05T18:03:21.250Z,0.40
2022-10-05T18:07:28.280Z,0.30
2022-10-05T18:11:39.016Z,0.38
2022-10-05T18:15:48.793Z,0.43
2022-10-05T18:20:10.817Z,0.38
2022-10-05T18:24:33.177Z,0.68
2022-10-05T18:29:15.820Z,0.40
2022-10-05T18:33:39.061Z,0.40
2022-10-05T18:38:01.880Z,0.52
2022-10-05T18:42:41.106Z,0.63
2022-10-05T18:46:53.789Z,0.30
2022-10-05T18:51:51.659Z,0.50
2022-10-05T18:56:12.517Z,0.52
2022-10-05T19:00:25.012Z,0.40
2022-10-05T19:05:03.509Z,0.45
2022-10-05T19:09:36.390Z,0.40
2022-10-05T19:13:51.021Z,0.40
2022-10-05T19:18:31.794Z,0.47
2022-10-05T19:22:44.342Z,0.60
2022-10-05T19:27:20.272Z,0.60
2022-10-05T19:32:03.000Z,0.75
2022-10-05T19:36:44.823Z,0.40
2022-10-05T19:41:42.578Z,0.40
2022-10-05T19:46:20.515Z,0.35
2022-10-05T19:50:30.835Z,0.30
2022-10-05T19:54:38.123Z,0.38
2022-10-05T19:58:44.966Z,0.47
2022-10-05T20:03:07.903Z,0.50
2022-10-05T20:07:22.811Z,0.93
2022-10-05T20:11:29.561Z,0.40
2022-10-05T20:15:56.189Z,0.40
2022-10-05T20:20:35.800Z,0.47
2022-10-05T20:24:50.866Z,0.38
2022-10-05T20:28:57.480Z,0.40
2022-10-05T20:33:10.363Z,0.30
2022-10-05T20:37:18.901Z,0.10
2022-10-05T20:41:25.531Z,0.00
2022-10-05T20:45:32.193Z,0.00
2022-10-05T20:49:41.091Z,0.00
2022-10-05T20:53:47.949Z,0.10
2022-10-05T20:57:55.306Z,0.25
2022-10-05T21:02:03.789Z,0.10
2022-10-05T21:06:11.249Z,0.65
2022-10-05T21:10:17.905Z,0.10
2022-10-05T21:14:28.004Z,0.20
2022-10-05T21:18:34.691Z,0.10
2022-10-05T21:22:41.868Z,0.10
2022-10-05T21:26:48.600Z,0.10
2022-10-05T21:30:55.462Z,0.28
2022-10-05T21:35:02.106Z,0.10
2022-10-05T21:39:08.796Z,0.03
2022-10-05T21:43:15.477Z,0.13
2022-10-05T21:47:22.167Z,0.10
2022-10-05T21:51:28.937Z,0.10
2022-10-05T21:55:39.330Z,0.10
2022-10-05T21:59:46.069Z,0.10
2022-10-05T22:03:52.794Z,0.08
2022-10-05T22:07:59.480Z,0.10
2022-10-05T22:12:06.140Z,0.10
2022-10-05T22:16:13.936Z,0.10
2022-10-05T22:20:21.808Z,0.03
2022-10-05T22:24:28.451Z,0.77
2022-10-05T22:28:35.953Z,0.00
2022-10-05T22:32:43.440Z,1.10
2022-10-05T22:36:50.736Z,0.10
2022-10-05T22:40:57.860Z,0.10
2022-10-05T22:45:06.292Z,0.10
2022-10-05T22:49:13.155Z,0.10
2022-10-05T22:53:19.911Z,0.10
2022-10-05T22:57:26.663Z,0.15
2022-10-05T23:01:33.379Z,0.17
2022-10-05T23:05:40.122Z,0.30
2022-10-05T23:09:46.796Z,0.22
2022-10-05T23:13:58.582Z,0.30
2022-10-05T23:18:05.254Z,1.20
2022-10-05T23:22:11.913Z,0.20
2022-10-05T23:26:21.522Z,0.40
2022-10-05T23:30:28.517Z,0.25
2022-10-05T23:34:35.325Z,0.22
2022-10-05T23:38:42.085Z,0.88
2022-10-05T23:42:48.809Z,0.15
2022-10-05T23:46:55.475Z,0.20
2022-10-05T23:51:02.120Z,0.20
2022-10-05T23:55:09.178Z,0.20
2022-10-05T23:59:15.835Z,0.20
